Time;durP1;ratioP1;P1;durP2;ratioP2;P2;SDS_P1;SDS_P2;PMS_P1;PMS_P2;Temp;Humidity;BMP_temperature;BMP_pressure;BME280_temperature;BME280_humidity;BME280_pressure;Samples;Min_cycle;Max_cycle;Signal;HPM_P1;HPM_P2
2023/12/23 00:02:19;;;;;;;13.00;4.60;;;;;;;-9.01;100.00;140095.16;110500;1274;22153;-61
2023/12/23 00:05:06;;;;;;;15.00;4.90;;;;;;;-8.99;100.00;140101.09;110507;1274;22111;-63
2023/12/23 00:07:52;;;;;;;11.30;5.40;;;;;;;-8.94;100.00;140112.91;110504;1274;22191;-60
2023/12/23 00:10:39;;;;;;;15.30;5.70;;;;;;;-8.88;100.00;140126.72;110488;1274;22121;-63
2023/12/23 00:13:25;;;;;;;14.60;5.00;;;;;;;-8.80;100.00;140146.92;110511;1273;22353;-63
2023/12/23 00:16:12;;;;;;;15.30;5.20;;;;;;;-8.68;100.00;140174.31;110502;1270;22828;-64
2023/12/23 00:18:58;;;;;;;12.80;5.60;;;;;;;-8.56;100.00;140203.88;110532;1268;22197;-60
2023/12/23 00:21:44;;;;;;;11.70;5.00;;;;;;;-8.45;100.00;140229.78;110545;1257;22985;-63
2023/12/23 00:24:31;;;;;;;13.10;4.10;;;;;;;-8.39;100.00;140246.03;110473;1270;22139;-62
2023/12/23 00:27:17;;;;;;;13.30;4.10;;;;;;;-8.35;100.00;140256.11;110560;1256;22165;-62
2023/12/23 00:30:04;;;;;;;16.70;4.80;;;;;;;-8.30;100.00;140266.97;110455;1260;22154;-62
2023/12/23 00:32:51;;;;;;;10.30;3.80;;;;;;;-8.24;100.00;140280.30;110558;1269;22312;-63
2023/12/23 00:35:37;;;;;;;13.80;4.50;;;;;;;-8.16;100.00;140300.53;110556;1267;22523;-63
2023/12/23 00:38:23;;;;;;;15.20;4.80;;;;;;;-8.07;100.00;140321.98;110513;1268;22147;-62
2023/12/23 00:41:10;;;;;;;12.40;4.70;;;;;;;-8.00;100.00;140339.28;110532;1268;23022;-63
2023/12/23 00:43:56;;;;;;;9.20;4.10;;;;;;;-7.96;100.00;140347.16;110520;1275;22328;-64
2023/12/23 00:46:43;;;;;;;10.70;4.90;;;;;;;-7.95;100.00;140351.84;110624;1267;22162;-63
2023/12/23 00:49:29;;;;;;;13.40;4.20;;;;;;;-7.92;100.00;140357.75;110452;1271;22160;-63
2023/12/23 00:52:15;;;;;;;17.20;5.00;;;;;;;-7.89;100.00;140365.41;110571;1256;22128;-63
2023/12/23 00:55:02;;;;;;;10.40;4.30;;;;;;;-7.83;100.00;140379.22;110493;1273;22152;-63
2023/12/23 00:57:48;;;;;;;9.30;3.60;;;;;;;-7.78;100.00;140391.33;110517;1274;22316;-63
2023/12/23 01:00:37;;;;;;;12.50;4.00;;;;;;;-7.74;100.00;140401.20;110565;1260;22442;-63
2023/12/23 01:03:24;;;;;;;13.60;4.40;;;;;;;-7.71;100.00;140410.09;110497;1267;23067;-63
2023/12/23 01:06:10;;;;;;;8.40;4.00;;;;;;;-7.69;100.00;140415.52;110438;1275;22328;-62
2023/12/23 01:08:57;;;;;;;11.80;3.70;;;;;;;-7.66;100.00;140420.70;110484;1267;22919;-62
2023/12/23 01:11:43;;;;;;;9.80;3.50;;;;;;;-7.65;100.00;140423.66;110571;1267;22897;-63
2023/12/23 01:14:29;;;;;;;11.50;3.30;;;;;;;-7.65;100.00;140425.63;110525;1273;22819;-63
2023/12/23 01:17:15;;;;;;;13.60;3.30;;;;;;;-7.58;100.00;140439.20;110453;1275;22151;-62
2023/12/23 01:20:02;;;;;;;8.80;3.80;;;;;;;-7.51;100.00;140455.75;110459;1275;22291;-61
2023/12/23 01:22:48;;;;;;;10.00;3.10;;;;;;;-7.47;100.00;140467.58;110529;1275;22184;-63
2023/12/23 01:25:35;;;;;;;10.70;3.90;;;;;;;-7.45;100.00;140472.78;110593;1275;22112;-62
2023/12/23 01:28:21;;;;;;;10.50;4.00;;;;;;;-7.45;100.00;140473.53;110432;1275;22136;-63
2023/12/23 01:31:07;;;;;;;8.90;3.80;;;;;;;-7.43;100.00;140476.22;110636;1267;22928;-62
2023/12/23 01:33:54;;;;;;;11.10;3.60;;;;;;;-7.42;100.00;140478.95;110561;1274;23047;-61
2023/12/23 01:36:41;;;;;;;8.40;3.20;;;;;;;-7.44;100.00;140475.48;110544;1253;22159;-63
2023/12/23 01:39:28;;;;;;;12.50;4.00;;;;;;;-7.43;100.00;140476.97;110510;1274;22164;-61
2023/12/23 01:42:14;;;;;;;9.20;3.30;;;;;;;-7.39;100.00;140485.86;110519;1274;22149;-62
2023/12/23 01:45:00;;;;;;;10.70;4.40;;;;;;;-7.38;100.00;140488.81;110541;1274;22184;-62
2023/12/23 01:47:49;;;;;;;11.70;3.80;;;;;;;-7.37;100.00;140490.30;110546;1268;22200;-62
2023/12/23 01:50:37;;;;;;;10.20;3.70;;;;;;;-7.39;100.00;140487.09;110544;1274;22389;-63
2023/12/23 01:53:25;;;;;;;16.30;3.10;;;;;;;-7.42;100.00;140479.91;110552;1267;22389;-61
2023/12/23 01:56:13;;;;;;;13.80;3.60;;;;;;;-7.44;100.00;140473.77;110494;1267;22313;-63
2023/12/23 01:59:02;;;;;;;6.80;3.30;;;;;;;-7.46;100.00;140470.80;110463;1272;22285;-64
2023/12/23 02:01:50;;;;;;;12.00;3.20;;;;;;;-7.44;100.00;140475.47;110557;1268;22792;-60
2023/12/23 02:04:37;;;;;;;8.30;3.70;;;;;;;-7.42;100.00;140480.17;110453;1275;22115;-63
2023/12/23 02:07:23;;;;;;;7.80;2.90;;;;;;;-7.42;100.00;140479.70;110520;1268;22099;-62
2023/12/23 02:10:09;;;;;;;10.30;3.40;;;;;;;-7.44;100.00;140475.47;110578;1274;22237;-62
2023/12/23 02:13:10;;;;;;;9.70;4.20;;;;;;;-7.47;100.00;140466.34;110556;1274;22935;-62
2023/12/23 02:15:59;;;;;;;7.80;3.20;;;;;;;-7.54;100.00;140450.55;110527;1274;22905;-62
2023/12/23 02:18:46;;;;;;;9.40;4.10;;;;;;;-7.58;100.00;140439.94;110532;1274;22254;-61
2023/12/23 02:21:32;;;;;;;6.90;3.70;;;;;;;-7.58;100.00;140438.47;110455;1275;23004;-64
2023/12/23 02:24:18;;;;;;;7.30;3.30;;;;;;;-7.55;100.00;140446.84;110594;1275;22277;-60
2023/12/23 02:27:09;;;;;;;9.10;3.10;;;;;;;-7.51;100.00;140456.25;110537;1256;23088;-62
2023/12/23 02:29:58;;;;;;;9.70;3.60;;;;;;;-7.52;100.00;140455.48;110560;1275;22118;-63
2023/12/23 02:32:44;;;;;;;10.50;4.90;;;;;;;-7.57;100.00;140441.91;110935;1253;22137;-61
2023/12/23 02:35:31;;;;;;;8.10;4.30;;;;;;;-7.64;100.00;140425.88;110538;1275;22240;-63
2023/12/23 02:38:17;;;;;;;9.10;3.70;;;;;;;-7.68;100.00;140416.00;110589;1275;22191;-61
2023/12/23 02:41:03;;;;;;;10.30;3.30;;;;;;;-7.70;100.00;140412.06;110557;1275;22461;-61
2023/12/23 02:43:50;;;;;;;8.60;3.50;;;;;;;-7.71;100.00;140410.83;110392;1275;22082;-64
2023/12/23 02:46:37;;;;;;;10.00;3.50;;;;;;;-7.72;100.00;140407.59;110457;1275;22181;-63
2023/12/23 02:49:23;;;;;;;7.60;3.40;;;;;;;-7.76;100.00;140397.23;110462;1275;22126;-61
2023/12/23 02:52:09;;;;;;;8.00;3.80;;;;;;;-7.79;100.00;140390.33;110469;1275;22155;-62
2023/12/23 02:54:58;;;;;;;6.70;2.90;;;;;;;-7.82;100.00;140380.97;110557;1274;22188;-62
2023/12/23 02:57:44;;;;;;;10.20;3.70;;;;;;;-7.85;100.00;140375.03;110535;1274;22110;-62
2023/12/23 03:00:30;;;;;;;6.70;3.60;;;;;;;-7.90;100.00;140363.92;110471;1274;22085;-61
2023/12/23 03:03:16;;;;;;;9.10;3.70;;;;;;;-7.90;100.00;140362.94;110583;1267;22567;-62
2023/12/23 03:06:03;;;;;;;9.10;3.90;;;;;;;-7.86;100.00;140372.33;110589;1267;22823;-62
2023/12/23 03:08:49;;;;;;;8.60;3.80;;;;;;;-7.83;100.00;140378.98;110464;1268;22342;-62
2023/12/23 03:11:37;;;;;;;9.10;3.10;;;;;;;-7.82;100.00;140382.94;110524;1271;22845;-62
2023/12/23 03:14:23;;;;;;;14.70;3.90;;;;;;;-7.81;100.00;140385.91;110544;1274;22151;-63
2023/12/23 03:17:10;;;;;;;7.30;3.10;;;;;;;-7.78;100.00;140391.30;110499;1274;22993;-60
2023/12/23 03:19:56;;;;;;;8.30;3.50;;;;;;;-7.74;100.00;140403.42;110522;1275;22867;-62
2023/12/23 03:22:43;;;;;;;6.90;3.10;;;;;;;-7.70;100.00;140412.53;110458;1274;22303;-61
2023/12/23 03:25:29;;;;;;;9.00;3.60;;;;;;;-7.68;100.00;140417.00;110535;1274;22191;-62
2023/12/23 03:28:15;;;;;;;9.10;3.60;;;;;;;-7.69;100.00;140414.03;110454;1274;22118;-63
2023/12/23 03:31:01;;;;;;;8.80;3.70;;;;;;;-7.71;100.00;140409.33;110557;1275;22187;-63
2023/12/23 03:33:47;;;;;;;10.00;3.40;;;;;;;-7.75;100.00;140400.95;110537;1255;22808;-62
2023/12/23 03:36:33;;;;;;;9.20;3.50;;;;;;;-7.74;100.00;140402.42;110558;1275;22207;-64
2023/12/23 03:39:19;;;;;;;9.70;3.70;;;;;;;-7.71;100.00;140410.31;110460;1275;22211;-63
2023/12/23 03:42:05;;;;;;;9.80;3.60;;;;;;;-7.70;100.00;140411.33;110585;1275;22199;-63
2023/12/23 03:44:51;;;;;;;12.60;3.80;;;;;;;-7.68;100.00;140416.75;110563;1275;22119;-63
2023/12/23 03:47:39;;;;;;;10.30;4.20;;;;;;;-7.69;100.00;140415.28;110551;1275;22154;-63
2023/12/23 03:50:29;;;;;;;10.00;3.70;;;;;;;-7.71;100.00;140408.84;110467;1275;22234;-62
2023/12/23 03:53:15;;;;;;;7.80;3.70;;;;;;;-7.74;100.00;140401.42;110418;1275;22870;-62
2023/12/23 03:56:04;;;;;;;7.80;3.40;;;;;;;-7.73;100.00;140403.67;110468;1275;22141;-63
2023/12/23 03:58:50;;;;;;;7.20;3.60;;;;;;;-7.74;100.00;140402.17;110503;1275;22149;-63
2023/12/23 04:01:37;;;;;;;10.30;3.90;;;;;;;-7.76;100.00;140396.25;110476;1275;22135;-62
2023/12/23 04:04:24;;;;;;;13.40;4.10;;;;;;;-7.79;100.00;140390.34;110403;1275;22122;-63
2023/12/23 04:07:12;;;;;;;8.20;3.90;;;;;;;-7.83;100.00;140379.22;110564;1260;23031;-63
2023/12/23 04:09:58;;;;;;;11.60;3.70;;;;;;;-7.89;100.00;140366.14;110462;1274;22351;-63
2023/12/23 04:12:44;;;;;;;7.10;3.70;;;;;;;-7.95;100.00;140351.34;110467;1274;22135;-63
2023/12/23 04:15:31;;;;;;;6.60;3.50;;;;;;;-7.99;100.00;140339.97;110431;1274;22112;-62
2023/12/23 04:18:17;;;;;;;10.20;4.00;;;;;;;-7.99;100.00;140340.50;110472;1274;22094;-62
2023/12/23 04:21:08;;;;;;;12.90;4.00;;;;;;;-7.95;100.00;140352.08;110454;1274;22324;-63
2023/12/23 04:23:54;;;;;;;9.50;4.30;;;;;;;-7.96;100.00;140349.13;110439;1274;22309;-61
2023/12/23 04:26:40;;;;;;;11.10;3.70;;;;;;;-7.99;100.00;140341.72;110553;1274;22235;-61
2023/12/23 04:29:26;;;;;;;7.40;4.00;;;;;;;-8.02;100.00;140333.09;110533;1270;22284;-63
2023/12/23 04:32:13;;;;;;;13.40;5.50;;;;;;;-8.05;100.00;140327.41;110488;1275;22116;-61
2023/12/23 04:34:59;;;;;;;13.00;4.80;;;;;;;-8.07;100.00;140322.47;110551;1275;22210;-64
2023/12/23 04:37:46;;;;;;;10.10;4.30;;;;;;;-8.08;100.00;140320.25;110494;1275;22209;-63
2023/12/23 04:40:32;;;;;;;11.80;5.00;;;;;;;-8.08;100.00;140321.00;110578;1275;22159;-64
2023/12/23 04:43:18;;;;;;;11.50;5.20;;;;;;;-8.06;100.00;140325.42;110587;1275;22145;-63
2023/12/23 04:46:05;;;;;;;12.60;4.70;;;;;;;-8.06;100.00;140325.17;110476;1275;22232;-62
2023/12/23 04:48:51;;;;;;;11.90;5.00;;;;;;;-8.11;100.00;140313.09;110495;1275;22174;-62
2023/12/23 04:51:37;;;;;;;16.80;6.40;;;;;;;-8.13;100.00;140307.92;110543;1275;22142;-61
2023/12/23 04:54:24;;;;;;;16.10;6.00;;;;;;;-8.18;100.00;140297.06;110586;1275;22201;-63
2023/12/23 04:57:09;;;;;;;14.90;6.30;;;;;;;-8.18;100.00;140295.83;110397;1275;22231;-61
2023/12/23 04:59:56;;;;;;;21.40;6.60;;;;;;;-8.14;100.00;140306.45;110495;1275;22191;-62
2023/12/23 05:02:42;;;;;;;18.70;7.50;;;;;;;-8.13;100.00;140307.92;110564;1275;22139;-63
2023/12/23 05:05:29;;;;;;;19.40;7.30;;;;;;;-8.15;100.00;140302.98;110504;1274;22843;-63
2023/12/23 05:08:16;;;;;;;16.80;5.30;;;;;;;-8.15;100.00;140303.22;110557;1253;22149;-62
2023/12/23 05:11:03;;;;;;;15.40;5.30;;;;;;;-8.15;100.00;140302.50;110475;1274;22137;-62
2023/12/23 05:13:51;;;;;;;13.30;5.60;;;;;;;-8.18;100.00;140295.09;110591;1254;22189;-65
2023/12/23 05:16:37;;;;;;;13.50;5.20;;;;;;;-8.18;100.00;140296.09;110539;1268;22143;-64
2023/12/23 05:19:24;;;;;;;12.70;5.00;;;;;;;-8.11;100.00;140312.36;110555;1274;22157;-61
2023/12/23 05:22:11;;;;;;;15.00;5.80;;;;;;;-8.03;100.00;140330.88;110627;1268;22478;-63
2023/12/23 05:24:57;;;;;;;11.00;4.90;;;;;;;-7.99;100.00;140340.22;110558;1275;22825;-63
2023/12/23 05:27:43;;;;;;;11.00;5.60;;;;;;;-7.98;100.00;140343.95;110555;1274;22303;-62
2023/12/23 05:30:30;;;;;;;10.50;4.60;;;;;;;-7.93;100.00;140354.55;110569;1274;22130;-64
2023/12/23 05:33:18;;;;;;;12.90;4.80;;;;;;;-7.89;100.00;140364.91;110583;1274;22184;-64
2023/12/23 05:36:05;;;;;;;10.60;4.70;;;;;;;-7.83;100.00;140380.72;110537;1274;22193;-64
2023/12/23 05:38:51;;;;;;;10.70;5.10;;;;;;;-7.77;100.00;140394.78;110545;1275;22887;-63
2023/12/23 05:41:37;;;;;;;13.40;5.90;;;;;;;-7.74;100.00;140401.69;110548;1274;22197;-63
2023/12/23 05:44:23;;;;;;;10.40;4.90;;;;;;;-7.75;100.00;140399.97;110575;1274;22210;-69
2023/12/23 05:47:09;;;;;;;12.20;4.50;;;;;;;-7.76;100.00;140397.75;110552;1274;22836;-64
2023/12/23 05:49:57;;;;;;;16.30;5.80;;;;;;;-7.76;100.00;140398.00;110538;1274;22149;-65
2023/12/23 05:52:46;;;;;;;9.40;4.00;;;;;;;-7.74;100.00;140401.92;110560;1274;22292;-62
2023/12/23 05:55:32;;;;;;;12.70;4.80;;;;;;;-7.72;100.00;140407.34;110572;1275;22707;-64
2023/12/23 05:58:18;;;;;;;10.30;4.70;;;;;;;-7.69;100.00;140415.28;110552;1274;22577;-63
2023/12/23 06:01:06;;;;;;;12.70;4.50;;;;;;;-7.69;100.00;140414.52;110579;1275;22134;-62
2023/12/23 06:03:53;;;;;;;12.40;4.80;;;;;;;-7.71;100.00;140409.83;110546;1256;22223;-64
2023/12/23 06:06:39;;;;;;;15.50;5.10;;;;;;;-7.71;100.00;140408.84;110481;1275;22298;-62
2023/12/23 06:09:26;;;;;;;11.00;5.10;;;;;;;-7.68;100.00;140416.00;110564;1275;22148;-63
2023/12/23 06:12:12;;;;;;;14.00;5.00;;;;;;;-7.67;100.00;140418.47;110566;1275;22109;-61
2023/12/23 06:14:58;;;;;;;12.50;5.60;;;;;;;-7.66;100.00;140422.91;110562;1275;22792;-62
2023/12/23 06:17:46;;;;;;;16.50;5.80;;;;;;;-7.63;100.00;140429.09;110568;1258;22223;-63
2023/12/23 06:20:32;;;;;;;12.80;5.80;;;;;;;-7.61;100.00;140431.55;110570;1274;22130;-62
2023/12/23 06:23:18;;;;;;;17.90;6.10;;;;;;;-7.60;100.00;140434.28;110534;1274;22356;-64
2023/12/23 06:26:04;;;;;;;14.10;5.70;;;;;;;-7.59;100.00;140437.97;110642;1267;22156;-63
2023/12/23 06:28:50;;;;;;;13.10;5.20;;;;;;;-7.57;100.00;140442.66;110491;1275;22313;-65
2023/12/23 06:31:37;;;;;;;12.50;5.80;;;;;;;-7.53;100.00;140453.28;110595;1267;22855;-64
2023/12/23 06:34:23;;;;;;;15.80;6.30;;;;;;;-7.50;100.00;140460.42;110581;1275;22119;-61
2023/12/23 06:37:09;;;;;;;15.90;5.90;;;;;;;-7.49;100.00;140462.89;110620;1274;22934;-64
2023/12/23 06:39:56;;;;;;;11.90;5.30;;;;;;;-7.48;100.00;140463.38;110542;1274;22140;-63
2023/12/23 06:42:42;;;;;;;12.90;5.70;;;;;;;-7.49;100.00;140460.92;110560;1259;22121;-64
2023/12/23 06:45:28;;;;;;;13.10;5.30;;;;;;;-7.51;100.00;140456.72;110576;1274;22156;-63
2023/12/23 06:48:14;;;;;;;14.40;5.30;;;;;;;-7.48;100.00;140463.14;110587;1274;22116;-63
2023/12/23 06:51:01;;;;;;;14.50;5.20;;;;;;;-7.44;100.00;140474.73;110583;1275;22783;-64
2023/12/23 06:53:47;;;;;;;13.80;5.20;;;;;;;-7.42;100.00;140478.95;110581;1275;22138;-64
2023/12/23 06:56:34;;;;;;;14.50;5.50;;;;;;;-7.40;100.00;140483.89;110546;1275;22960;-64
2023/12/23 06:59:20;;;;;;;14.80;5.30;;;;;;;-7.41;100.00;140481.66;110487;1275;22818;-62
2023/12/23 07:02:06;;;;;;;15.90;6.10;;;;;;;-7.40;100.00;140482.41;110470;1275;22170;-63
2023/12/23 07:04:53;;;;;;;12.10;5.60;;;;;;;-7.40;100.00;140483.38;110616;1275;22229;-64
2023/12/23 07:07:39;;;;;;;10.80;4.80;;;;;;;-7.39;100.00;140486.84;110562;1275;22124;-65
2023/12/23 07:10:25;;;;;;;12.20;5.60;;;;;;;-7.33;100.00;140500.16;110589;1275;22806;-66
2023/12/23 07:13:12;;;;;;;14.10;5.60;;;;;;;-7.32;100.00;140504.13;110583;1275;22142;-63
2023/12/23 07:15:57;;;;;;;13.90;5.80;;;;;;;-7.35;100.00;140496.73;110607;1275;22248;-62
2023/12/23 07:18:44;;;;;;;13.40;5.50;;;;;;;-7.35;100.00;140496.72;110571;1275;22906;-64
2023/12/23 07:21:30;;;;;;;17.70;5.30;;;;;;;-7.36;100.00;140492.53;110559;1275;22148;-65
2023/12/23 07:24:16;;;;;;;15.70;5.40;;;;;;;-7.38;100.00;140488.33;110606;1275;22244;-64
2023/12/23 07:27:04;;;;;;;16.60;5.70;;;;;;;-7.39;100.00;140487.08;110583;1275;22226;-64
2023/12/23 07:29:50;;;;;;;11.70;5.00;;;;;;;-7.42;100.00;140478.44;110563;1274;22855;-64
2023/12/23 07:32:36;;;;;;;19.30;5.10;;;;;;;-7.38;100.00;140488.05;110584;1274;22252;-64
2023/12/23 07:35:23;;;;;;;16.70;5.90;;;;;;;-7.30;100.00;140507.34;110589;1274;22133;-64
2023/12/23 07:38:09;;;;;;;12.80;4.80;;;;;;;-7.24;100.00;140524.11;110537;1274;22741;-64
2023/12/23 07:40:56;;;;;;;15.20;6.10;;;;;;;-7.23;100.00;140525.84;110558;1274;22232;-63
2023/12/23 07:43:42;;;;;;;13.60;4.70;;;;;;;-7.20;100.00;140532.27;110575;1267;22136;-63
2023/12/23 07:46:28;;;;;;;13.90;5.00;;;;;;;-7.12;100.00;140550.03;110545;1274;22110;-67
2023/12/23 07:49:14;;;;;;;15.60;5.90;;;;;;;-7.07;100.00;140563.16;110535;1263;22138;-64
2023/12/23 07:52:00;;;;;;;16.40;5.50;;;;;;;-7.01;100.00;140578.45;110553;1274;22378;-64
2023/12/23 07:54:46;;;;;;;16.40;5.60;;;;;;;-6.94;100.00;140595.50;110585;1274;22133;-63
2023/12/23 07:57:32;;;;;;;15.00;4.70;;;;;;;-6.85;100.00;140617.47;110576;1274;22145;-64
2023/12/23 08:00:19;;;;;;;11.50;4.20;;;;;;;-6.75;100.00;140641.69;110559;1275;22124;-62
2023/12/23 08:03:05;;;;;;;14.50;5.70;;;;;;;-6.63;100.00;140668.84;110946;1257;22152;-65
2023/12/23 08:05:51;;;;;;;15.10;5.20;;;;;;;-6.51;100.00;140698.50;110553;1275;22156;-62
2023/12/23 08:08:37;;;;;;;9.90;4.70;;;;;;;-6.36;100.00;140735.33;110548;1275;22194;-64
2023/12/23 08:11:23;;;;;;;14.10;5.60;;;;;;;-6.17;100.00;140781.78;110560;1275;22145;-64
2023/12/23 08:14:11;;;;;;;14.30;5.30;;;;;;;-5.90;100.00;140846.77;110597;1275;22903;-65
2023/12/23 08:16:57;;;;;;;14.50;6.00;;;;;;;-5.70;100.00;140894.47;110563;1275;22101;-65
2023/12/23 08:19:43;;;;;;;16.70;5.10;;;;;;;-5.57;100.00;140926.64;110521;1275;22142;-65
2023/12/23 08:22:30;;;;;;;14.70;5.20;;;;;;;-5.47;100.00;140949.11;110581;1275;22115;-65
2023/12/23 08:25:16;;;;;;;13.10;4.90;;;;;;;-5.44;100.00;140956.78;110957;1260;22400;-64
2023/12/23 08:28:03;;;;;;;14.70;5.50;;;;;;;-5.46;100.00;140954.30;110568;1275;22969;-62
2023/12/23 08:30:49;;;;;;;14.90;5.40;;;;;;;-5.45;100.00;140953.81;110526;1274;22734;-64
2023/12/23 08:33:35;;;;;;;13.50;5.10;;;;;;;-5.37;100.00;140972.36;110836;1256;22353;-64
2023/12/23 08:36:22;;;;;;;9.90;4.70;;;;;;;-5.31;100.00;140988.70;110532;1271;22282;-65
2023/12/23 08:39:08;;;;;;;19.20;5.80;;;;;;;-5.31;100.00;140988.20;110631;1269;22120;-64
2023/12/23 08:41:54;;;;;;;16.80;5.20;;;;;;;-5.33;100.00;140982.53;110622;1267;22320;-64
2023/12/23 08:44:41;;;;;;;16.50;5.90;;;;;;;-5.35;100.00;140977.56;110685;1256;23144;-63
2023/12/23 08:47:26;;;;;;;15.20;6.20;;;;;;;-5.37;100.00;140973.36;110628;1269;22845;-65
2023/12/23 08:50:13;;;;;;;15.70;6.70;;;;;;;-5.38;100.00;140969.66;110554;1274;22140;-65
2023/12/23 08:53:00;;;;;;;12.40;5.80;;;;;;;-5.36;100.00;140975.58;110541;1268;22328;-66
2023/12/23 08:55:46;;;;;;;13.60;5.40;;;;;;;-5.35;100.00;140979.30;110541;1268;22117;-64
2023/12/23 08:58:33;;;;;;;16.90;6.50;;;;;;;-5.21;100.00;141011.70;110613;1268;22313;-68
2023/12/23 09:01:19;;;;;;;13.00;4.70;;;;;;;-4.85;100.00;141098.55;110609;1274;22978;-65
2023/12/23 09:04:05;;;;;;;17.20;5.60;;;;;;;-4.51;100.00;141181.97;110571;1260;22092;-64
2023/12/23 09:06:52;;;;;;;16.90;4.80;;;;;;;-4.23;100.00;141250.30;110609;1266;22129;-68
2023/12/23 09:09:41;;;;;;;11.60;4.60;;;;;;;-4.18;100.00;141263.42;110552;1275;22115;-65
2023/12/23 09:12:27;;;;;;;12.90;5.40;;;;;;;-4.27;100.00;141239.91;110581;1275;22148;-65
2023/12/23 09:15:14;;;;;;;13.90;5.50;;;;;;;-4.38;100.00;141214.41;110570;1275;22929;-64
2023/12/23 09:18:00;;;;;;;11.90;4.60;;;;;;;-4.47;100.00;141191.13;110524;1273;22185;-67
2023/12/23 09:20:46;;;;;;;12.40;4.80;;;;;;;-4.65;100.00;141148.30;110549;1275;22150;-69
2023/12/23 09:23:33;;;;;;;13.60;5.10;;;;;;;-4.94;100.00;141076.52;110599;1275;22137;-63
2023/12/23 09:26:20;;;;;;;11.20;4.50;;;;;;;-5.11;100.00;141037.67;110576;1271;22342;-66
2023/12/23 09:29:06;;;;;;;15.90;5.60;;;;;;;-5.21;100.00;141012.95;110594;1274;22124;-64
2023/12/23 09:31:53;;;;;;;16.00;5.50;;;;;;;-5.33;100.00;140984.47;110583;1274;22222;-65
2023/12/23 09:34:39;;;;;;;12.50;4.70;;;;;;;-5.41;100.00;140963.97;110620;1275;22110;-65
2023/12/23 09:37:25;;;;;;;10.20;4.90;;;;;;;-5.42;100.00;140961.00;110657;1274;22215;-67
2023/12/23 09:40:13;;;;;;;11.00;4.30;;;;;;;-5.42;100.00;140961.72;110620;1275;22245;-64
2023/12/23 09:42:59;;;;;;;11.80;4.30;;;;;;;-5.48;100.00;140948.11;110608;1274;22888;-67
2023/12/23 09:45:46;;;;;;;13.30;4.50;;;;;;;-5.56;100.00;140927.59;110638;1275;22133;-64
2023/12/23 09:48:33;;;;;;;15.10;5.90;;;;;;;-5.58;100.00;140923.91;110612;1275;22136;-68
2023/12/23 09:51:25;;;;;;;10.40;4.60;;;;;;;-5.56;100.00;140927.36;110577;1275;22176;-68
2023/12/23 09:54:19;;;;;;;10.20;4.90;;;;;;;-5.60;100.00;140917.70;110622;1275;22124;-69
2023/12/23 09:57:07;;;;;;;15.50;4.40;;;;;;;-5.69;100.00;140897.67;110574;1275;22166;-67
2023/12/23 09:59:55;;;;;;;13.60;4.60;;;;;;;-5.66;100.00;140903.13;110542;1275;22758;-69
2023/12/23 10:02:42;;;;;;;11.20;4.80;;;;;;;-5.53;100.00;140934.52;110596;1275;22141;-68
2023/12/23 10:05:31;;;;;;;10.30;4.70;;;;;;;-5.52;100.00;140938.00;110468;1275;127151;-67
2023/12/23 10:08:18;;;;;;;13.30;5.20;;;;;;;-5.52;100.00;140938.22;110593;1275;22142;-70
2023/12/23 10:11:05;;;;;;;17.90;4.80;;;;;;;-5.42;100.00;140962.22;110559;1275;22362;-65
2023/12/23 10:13:51;;;;;;;9.50;4.00;;;;;;;-5.36;100.00;140975.58;110575;1275;22849;-67
2023/12/23 10:16:40;;;;;;;9.40;4.90;;;;;;;-5.33;100.00;140984.00;110581;1275;22176;-70
2023/12/23 10:19:31;;;;;;;11.00;4.20;;;;;;;-5.30;100.00;140991.66;110573;1275;22217;-65
2023/12/23 10:22:17;;;;;;;15.80;3.90;;;;;;;-5.36;100.00;140975.83;110577;1275;22772;-66
2023/12/23 10:25:04;;;;;;;12.60;4.10;;;;;;;-5.55;100.00;140931.08;110571;1275;22118;-67
2023/12/23 10:27:54;;;;;;;11.20;4.00;;;;;;;-5.70;100.00;140893.47;110580;1275;22131;-64
2023/12/23 10:30:50;;;;;;;8.40;3.70;;;;;;;-5.75;100.00;140882.34;110580;1275;22338;-68
2023/12/23 10:33:44;;;;;;;9.00;3.70;;;;;;;-5.75;100.00;140882.59;110554;1275;22136;-66
2023/12/23 10:36:31;;;;;;;9.90;3.30;;;;;;;-5.83;100.00;140862.33;110597;1275;22854;-68
2023/12/23 10:39:25;;;;;;;7.90;3.60;;;;;;;-5.87;100.00;140853.42;110590;1275;22130;-66
2023/12/23 10:42:19;;;;;;;10.20;4.60;;;;;;;-5.83;100.00;140863.30;110588;1275;22135;-66
2023/12/23 10:45:07;;;;;;;10.80;4.70;;;;;;;-5.80;100.00;140870.23;110635;1257;22145;-68
2023/12/23 10:47:53;;;;;;;12.00;4.80;;;;;;;-5.79;100.00;140872.72;110611;1275;22205;-67
2023/12/23 10:50:41;;;;;;;9.00;3.90;;;;;;;-5.82;100.00;140864.80;110578;1275;22140;-68
2023/12/23 10:53:29;;;;;;;8.20;4.10;;;;;;;-5.85;100.00;140857.13;110610;1275;22151;-69
2023/12/23 10:56:16;;;;;;;9.40;4.40;;;;;;;-5.88;100.00;140850.97;110554;1275;22309;-64
2023/12/23 10:59:04;;;;;;;10.40;4.40;;;;;;;-5.89;100.00;140848.95;110544;1275;22136;-66
2023/12/23 11:01:51;;;;;;;10.10;3.80;;;;;;;-5.83;100.00;140861.09;110593;1275;22319;-68
2023/12/23 11:04:38;;;;;;;11.20;3.80;;;;;;;-5.80;100.00;140870.98;110533;1272;22128;-66
2023/12/23 11:07:29;;;;;;;9.20;4.30;;;;;;;-5.81;100.00;140866.28;110614;1271;22109;-72
2023/12/23 11:10:16;;;;;;;7.10;3.20;;;;;;;-5.98;100.00;140826.28;110562;1275;22137;-65
2023/12/23 11:13:03;;;;;;;10.20;4.10;;;;;;;-6.19;100.00;140774.88;110558;1274;22111;-63
2023/12/23 11:15:49;;;;;;;10.50;4.10;;;;;;;-6.42;100.00;140721.73;110533;1274;22172;-64
2023/12/23 11:18:37;;;;;;;10.90;4.30;;;;;;;-6.60;100.00;140676.25;110559;1274;22223;-64
2023/12/23 11:21:23;;;;;;;9.10;4.60;;;;;;;-6.84;100.00;140619.70;110547;1275;22134;-65
2023/12/23 11:24:36;;;;;;;11.60;4.70;;;;;;;-6.99;100.00;140582.14;110568;1275;22204;-65
2023/12/23 11:27:29;;;;;;;11.20;4.60;;;;;;;-7.04;100.00;140571.30;110579;1259;23020;-67
2023/12/23 11:30:15;;;;;;;9.70;4.90;;;;;;;-7.04;100.00;140571.53;110567;1275;22080;-68
2023/12/23 11:33:04;;;;;;;14.30;5.80;;;;;;;-7.01;100.00;140577.95;110544;1275;22125;-69
2023/12/23 11:35:52;;;;;;;14.90;5.00;;;;;;;-6.92;100.00;140599.44;110578;1275;22100;-65
2023/12/23 11:38:50;;;;;;;8.70;4.90;;;;;;;-6.79;100.00;140630.56;110517;1275;22147;-68
2023/12/23 11:41:42;;;;;;;12.80;5.80;;;;;;;-6.71;100.00;140648.34;110550;1268;22271;-67
2023/12/23 11:44:31;;;;;;;10.10;5.50;;;;;;;-6.61;100.00;140675.28;110524;1275;22251;-66
2023/12/23 11:47:18;;;;;;;10.20;5.00;;;;;;;-6.57;100.00;140684.91;110520;1275;22190;-69
2023/12/23 11:50:06;;;;;;;9.90;4.70;;;;;;;-6.55;100.00;140688.86;110587;1269;22144;-66
2023/12/23 11:52:52;;;;;;;14.90;6.00;;;;;;;-6.54;100.00;140692.08;110515;1275;22125;-70
2023/12/23 11:55:39;;;;;;;11.70;5.40;;;;;;;-6.56;100.00;140687.84;110539;1275;23058;-66
2023/12/23 11:58:26;;;;;;;12.60;4.60;;;;;;;-6.59;100.00;140678.48;110538;1275;22193;-66
2023/12/23 12:01:12;;;;;;;9.50;4.20;;;;;;;-6.64;100.00;140666.14;110582;1256;22235;-68
2023/12/23 12:03:59;;;;;;;10.40;4.40;;;;;;;-6.63;100.00;140668.59;110572;1267;22278;-63
2023/12/23 12:06:46;;;;;;;12.00;5.10;;;;;;;-6.70;100.00;140651.81;110596;1274;22119;-68
2023/12/23 12:09:34;;;;;;;9.00;4.90;;;;;;;-6.73;100.00;140644.16;110544;1275;23225;-65
2023/12/23 12:12:21;;;;;;;11.10;4.90;;;;;;;-6.78;100.00;140634.03;110544;1267;22191;-64
2023/12/23 12:15:07;;;;;;;11.70;4.80;;;;;;;-6.84;100.00;140618.95;110555;1275;22125;-67
2023/12/23 12:17:53;;;;;;;13.40;5.40;;;;;;;-6.89;100.00;140606.86;110648;1268;22764;-68
2023/12/23 12:20:40;;;;;;;11.90;5.70;;;;;;;-6.93;100.00;140597.47;110538;1275;22139;-69
2023/12/23 12:23:26;;;;;;;11.00;5.40;;;;;;;-6.92;100.00;140600.20;110536;1275;23007;-66
2023/12/23 12:26:12;;;;;;;16.10;6.20;;;;;;;-6.89;100.00;140607.59;110586;1275;22188;-69
2023/12/23 12:28:59;;;;;;;13.80;5.70;;;;;;;-6.76;100.00;140637.25;110510;1275;22103;-70
2023/12/23 12:31:45;;;;;;;11.90;5.60;;;;;;;-6.63;100.00;140669.84;110630;1256;22231;-67
2023/12/23 12:34:32;;;;;;;9.90;5.00;;;;;;;-6.58;100.00;140681.72;110532;1274;22185;-65